sensor_id;sensor_type;location;lat;lon;timestamp;P1;durP1;ratioP1;P2;durP2;ratioP2
3767;SDS011;1899;49.966;7.106;2022-09-21T04:01:41;2.00;;;1.73;;
3767;SDS011;1899;49.966;7.106;2022-09-21T04:04:06;4.50;;;2.10;;
3767;SDS011;1899;49.966;7.106;2022-09-21T04:06:31;3.17;;;2.40;;
3767;SDS011;1899;49.966;7.106;2022-09-21T04:08:57;3.10;;;2.60;;
3767;SDS011;1899;49.966;7.106;2022-09-21T04:11:24;4.97;;;2.90;;
3767;SDS011;1899;49.966;7.106;2022-09-21T04:13:49;3.10;;;2.80;;
3767;SDS011;1899;49.966;7.106;2022-09-21T04:16:17;3.10;;;2.80;;
3767;SDS011;1899;49.966;7.106;2022-09-21T04:18:42;3.00;;;2.38;;
3767;SDS011;1899;49.966;7.106;2022-09-21T04:21:07;2.60;;;2.40;;
3767;SDS011;1899;49.966;7.106;2022-09-21T04:23:33;2.83;;;2.63;;
3767;SDS011;1899;49.966;7.106;2022-09-21T04:25:59;4.80;;;3.50;;
3767;SDS011;1899;49.966;7.106;2022-09-21T04:28:24;3.97;;;3.60;;
3767;SDS011;1899;49.966;7.106;2022-09-21T04:30:52;4.35;;;3.95;;
3767;SDS011;1899;49.966;7.106;2022-09-21T04:33:18;3.72;;;3.42;;
3767;SDS011;1899;49.966;7.106;2022-09-21T04:35:44;4.13;;;3.70;;
3767;SDS011;1899;49.966;7.106;2022-09-21T04:38:09;4.90;;;4.40;;
3767;SDS011;1899;49.966;7.106;2022-09-21T04:40:34;4.83;;;4.43;;
3767;SDS011;1899;49.966;7.106;2022-09-21T04:42:59;4.67;;;4.17;;
3767;SDS011;1899;49.966;7.106;2022-09-21T04:45:25;3.93;;;3.50;;
3767;SDS011;1899;49.966;7.106;2022-09-21T04:47:50;4.07;;;3.00;;
3767;SDS011;1899;49.966;7.106;2022-09-21T04:50:15;4.00;;;2.83;;
3767;SDS011;1899;49.966;7.106;2022-09-21T04:52:41;3.40;;;3.00;;
3767;SDS011;1899;49.966;7.106;2022-09-21T04:55:06;6.20;;;3.67;;
3767;SDS011;1899;49.966;7.106;2022-09-21T04:57:32;5.28;;;3.65;;
3767;SDS011;1899;49.966;7.106;2022-09-21T04:59:59;3.30;;;3.00;;
3767;SDS011;1899;49.966;7.106;2022-09-21T05:02:24;3.10;;;2.80;;
3767;SDS011;1899;49.966;7.106;2022-09-21T05:04:49;3.50;;;2.90;;
3767;SDS011;1899;49.966;7.106;2022-09-21T05:07:15;3.17;;;2.60;;
3767;SDS011;1899;49.966;7.106;2022-09-21T05:09:40;3.17;;;2.70;;
3767;SDS011;1899;49.966;7.106;2022-09-21T05:12:24;2.60;;;2.40;;
3767;SDS011;1899;49.966;7.106;2022-09-21T05:17:36;2.38;;;2.13;;
3767;SDS011;1899;49.966;7.106;2022-09-21T05:20:02;2.60;;;2.40;;
3767;SDS011;1899;49.966;7.106;2022-09-21T05:22:27;2.80;;;2.20;;
3767;SDS011;1899;49.966;7.106;2022-09-21T05:24:53;3.30;;;2.40;;
3767;SDS011;1899;49.966;7.106;2022-09-21T05:27:19;3.60;;;2.80;;
3767;SDS011;1899;49.966;7.106;2022-09-21T05:29:45;3.60;;;3.30;;
3767;SDS011;1899;49.966;7.106;2022-09-21T05:32:12;2.97;;;2.77;;
3767;SDS011;1899;49.966;7.106;2022-09-21T05:40:09;3.00;;;2.80;;
3767;SDS011;1899;49.966;7.106;2022-09-21T05:42:34;4.28;;;3.47;;
3767;SDS011;1899;49.966;7.106;2022-09-21T05:45:00;3.55;;;3.08;;
3767;SDS011;1899;49.966;7.106;2022-09-21T05:55:25;3.67;;;3.37;;
3767;SDS011;1899;49.966;7.106;2022-09-21T06:00:18;6.70;;;4.03;;
3767;SDS011;1899;49.966;7.106;2022-09-21T06:03:03;6.28;;;4.20;;
3767;SDS011;1899;49.966;7.106;2022-09-21T06:05:35;5.10;;;4.60;;
3767;SDS011;1899;49.966;7.106;2022-09-21T06:08:01;5.33;;;4.80;;
3767;SDS011;1899;49.966;7.106;2022-09-21T06:10:27;6.75;;;5.22;;
3767;SDS011;1899;49.966;7.106;2022-09-21T06:12:54;6.03;;;4.60;;
3767;SDS011;1899;49.966;7.106;2022-09-21T06:15:20;4.97;;;4.47;;
3767;SDS011;1899;49.966;7.106;2022-09-21T06:17:45;7.30;;;4.60;;
3767;SDS011;1899;49.966;7.106;2022-09-21T06:20:11;5.73;;;4.70;;
3767;SDS011;1899;49.966;7.106;2022-09-21T06:22:36;7.20;;;4.67;;
3767;SDS011;1899;49.966;7.106;2022-09-21T06:25:01;5.60;;;4.50;;
3767;SDS011;1899;49.966;7.106;2022-09-21T06:27:27;6.63;;;4.83;;
3767;SDS011;1899;49.966;7.106;2022-09-21T06:29:52;8.13;;;5.03;;
3767;SDS011;1899;49.966;7.106;2022-09-21T06:32:17;6.50;;;5.40;;
3767;SDS011;1899;49.966;7.106;2022-09-21T06:34:42;9.57;;;5.33;;
3767;SDS011;1899;49.966;7.106;2022-09-21T06:37:08;5.07;;;4.47;;
3767;SDS011;1899;49.966;7.106;2022-09-21T06:39:33;9.93;;;5.80;;
3767;SDS011;1899;49.966;7.106;2022-09-21T06:41:58;7.23;;;4.70;;
3767;SDS011;1899;49.966;7.106;2022-09-21T06:44:24;7.37;;;5.53;;
3767;SDS011;1899;49.966;7.106;2022-09-21T06:46:49;5.20;;;4.70;;
3767;SDS011;1899;49.966;7.106;2022-09-21T06:49:14;6.90;;;5.90;;
3767;SDS011;1899;49.966;7.106;2022-09-21T06:51:39;9.90;;;5.83;;
3767;SDS011;1899;49.966;7.106;2022-09-21T06:54:04;5.97;;;5.37;;
3767;SDS011;1899;49.966;7.106;2022-09-21T06:56:30;6.83;;;5.60;;
3767;SDS011;1899;49.966;7.106;2022-09-21T06:58:55;6.55;;;5.90;;
3767;SDS011;1899;49.966;7.106;2022-09-21T07:01:21;8.27;;;5.90;;
3767;SDS011;1899;49.966;7.106;2022-09-21T07:03:49;9.23;;;5.40;;
3767;SDS011;1899;49.966;7.106;2022-09-21T07:06:15;6.68;;;5.10;;
3767;SDS011;1899;49.966;7.106;2022-09-21T07:08:41;7.00;;;5.75;;
3767;SDS011;1899;49.966;7.106;2022-09-21T07:11:08;8.20;;;6.10;;
3767;SDS011;1899;49.966;7.106;2022-09-21T07:13:33;7.63;;;6.25;;
3767;SDS011;1899;49.966;7.106;2022-09-21T07:16:02;7.78;;;6.00;;
3767;SDS011;1899;49.966;7.106;2022-09-21T07:18:28;8.52;;;6.60;;
3767;SDS011;1899;49.966;7.106;2022-09-21T07:20:53;7.10;;;6.00;;
3767;SDS011;1899;49.966;7.106;2022-09-21T07:23:19;9.23;;;6.93;;
3767;SDS011;1899;49.966;7.106;2022-09-21T07:25:45;9.00;;;6.35;;
3767;SDS011;1899;49.966;7.106;2022-09-21T07:28:13;8.63;;;6.05;;
3767;SDS011;1899;49.966;7.106;2022-09-21T07:30:39;7.07;;;6.23;;
3767;SDS011;1899;49.966;7.106;2022-09-21T07:33:04;10.90;;;5.90;;
3767;SDS011;1899;49.966;7.106;2022-09-21T07:35:30;6.70;;;5.83;;
3767;SDS011;1899;49.966;7.106;2022-09-21T07:38:03;7.63;;;6.90;;
3767;SDS011;1899;49.966;7.106;2022-09-21T07:40:28;7.67;;;6.87;;
3767;SDS011;1899;49.966;7.106;2022-09-21T07:43:00;8.90;;;6.80;;
3767;SDS011;1899;49.966;7.106;2022-09-21T07:45:29;7.75;;;6.43;;
3767;SDS011;1899;49.966;7.106;2022-09-21T07:47:55;9.30;;;6.93;;
3767;SDS011;1899;49.966;7.106;2022-09-21T07:50:20;7.70;;;6.70;;
3767;SDS011;1899;49.966;7.106;2022-09-21T07:52:46;8.00;;;6.40;;
3767;SDS011;1899;49.966;7.106;2022-09-21T07:55:12;7.27;;;6.37;;
3767;SDS011;1899;49.966;7.106;2022-09-21T07:57:37;8.17;;;7.20;;
3767;SDS011;1899;49.966;7.106;2022-09-21T08:00:21;8.93;;;7.20;;
3767;SDS011;1899;49.966;7.106;2022-09-21T08:02:46;8.20;;;6.97;;
3767;SDS011;1899;49.966;7.106;2022-09-21T08:05:11;8.20;;;6.50;;
3767;SDS011;1899;49.966;7.106;2022-09-21T08:07:36;7.90;;;7.07;;
3767;SDS011;1899;49.966;7.106;2022-09-21T08:10:02;8.80;;;7.63;;
3767;SDS011;1899;49.966;7.106;2022-09-21T08:12:27;8.43;;;6.80;;
3767;SDS011;1899;49.966;7.106;2022-09-21T08:14:52;7.60;;;6.80;;
3767;SDS011;1899;49.966;7.106;2022-09-21T08:17:18;12.57;;;8.00;;
3767;SDS011;1899;49.966;7.106;2022-09-21T08:22:28;7.38;;;6.60;;
3767;SDS011;1899;49.966;7.106;2022-09-21T08:24:54;9.23;;;7.13;;
3767;SDS011;1899;49.966;7.106;2022-09-21T08:27:19;10.73;;;7.45;;
3767;SDS011;1899;49.966;7.106;2022-09-21T08:29:45;9.40;;;6.87;;
3767;SDS011;1899;49.966;7.106;2022-09-21T08:32:10;8.60;;;7.20;;
3767;SDS011;1899;49.966;7.106;2022-09-21T08:34:36;8.75;;;7.32;;
3767;SDS011;1899;49.966;7.106;2022-09-21T08:37:01;10.37;;;7.77;;
3767;SDS011;1899;49.966;7.106;2022-09-21T08:39:26;9.00;;;7.67;;
3767;SDS011;1899;49.966;7.106;2022-09-21T08:44:28;8.70;;;7.50;;
3767;SDS011;1899;49.966;7.106;2022-09-21T08:49:24;9.32;;;7.57;;
3767;SDS011;1899;49.966;7.106;2022-09-21T08:51:51;8.73;;;7.32;;
3767;SDS011;1899;49.966;7.106;2022-09-21T08:57:13;8.50;;;7.43;;
3767;SDS011;1899;49.966;7.106;2022-09-21T08:59:48;9.38;;;7.20;;
3767;SDS011;1899;49.966;7.106;2022-09-21T09:07:20;8.87;;;7.67;;
3767;SDS011;1899;49.966;7.106;2022-09-21T09:20:41;8.20;;;7.40;;
3767;SDS011;1899;49.966;7.106;2022-09-21T09:23:11;10.43;;;8.20;;
3767;SDS011;1899;49.966;7.106;2022-09-21T09:25:40;8.13;;;7.20;;
3767;SDS011;1899;49.966;7.106;2022-09-21T09:30:57;10.35;;;8.25;;
3767;SDS011;1899;49.966;7.106;2022-09-21T09:36:10;10.07;;;7.95;;
3767;SDS011;1899;49.966;7.106;2022-09-21T09:51:30;9.88;;;7.30;;
3767;SDS011;1899;49.966;7.106;2022-09-21T09:54:03;8.88;;;7.70;;
3767;SDS011;1899;49.966;7.106;2022-09-21T09:56:30;9.30;;;7.47;;
3767;SDS011;1899;49.966;7.106;2022-09-21T09:58:56;8.37;;;7.10;;
3767;SDS011;1899;49.966;7.106;2022-09-21T10:01:35;9.27;;;7.03;;
3767;SDS011;1899;49.966;7.106;2022-09-21T10:04:04;10.13;;;7.35;;
3767;SDS011;1899;49.966;7.106;2022-09-21T10:06:30;8.60;;;6.90;;
3767;SDS011;1899;49.966;7.106;2022-09-21T10:08:56;6.97;;;6.10;;
3767;SDS011;1899;49.966;7.106;2022-09-21T10:11:21;6.90;;;6.20;;
3767;SDS011;1899;49.966;7.106;2022-09-21T10:14:05;6.80;;;6.10;;
3767;SDS011;1899;49.966;7.106;2022-09-21T10:16:31;7.20;;;5.90;;
3767;SDS011;1899;49.966;7.106;2022-09-21T10:18:57;5.60;;;4.90;;
3767;SDS011;1899;49.966;7.106;2022-09-21T10:21:34;5.90;;;5.00;;
3767;SDS011;1899;49.966;7.106;2022-09-21T10:24:01;4.60;;;4.00;;
3767;SDS011;1899;49.966;7.106;2022-09-21T10:26:35;5.13;;;4.20;;
3767;SDS011;1899;49.966;7.106;2022-09-21T10:29:01;5.50;;;4.40;;
3767;SDS011;1899;49.966;7.106;2022-09-21T10:31:40;5.60;;;3.90;;
3767;SDS011;1899;49.966;7.106;2022-09-21T10:34:17;3.63;;;3.33;;
3767;SDS011;1899;49.966;7.106;2022-09-21T10:36:47;5.10;;;3.73;;
3767;SDS011;1899;49.966;7.106;2022-09-21T10:39:18;4.00;;;2.95;;
3767;SDS011;1899;49.966;7.106;2022-09-21T10:41:51;3.13;;;2.60;;
3767;SDS011;1899;49.966;7.106;2022-09-21T10:44:18;2.30;;;2.10;;
3767;SDS011;1899;49.966;7.106;2022-09-21T10:46:44;3.97;;;2.60;;
3767;SDS011;1899;49.966;7.106;2022-09-21T10:49:20;3.10;;;2.00;;
3767;SDS011;1899;49.966;7.106;2022-09-21T10:51:46;4.22;;;2.00;;
3767;SDS011;1899;49.966;7.106;2022-09-21T10:54:15;4.30;;;2.00;;
3767;SDS011;1899;49.966;7.106;2022-09-21T10:56:50;6.17;;;2.57;;
3767;SDS011;1899;49.966;7.106;2022-09-21T11:01:46;5.68;;;2.00;;
3767;SDS011;1899;49.966;7.106;2022-09-21T11:04:17;3.28;;;1.70;;
3767;SDS011;1899;49.966;7.106;2022-09-21T11:06:44;4.20;;;1.85;;
3767;SDS011;1899;49.966;7.106;2022-09-21T11:09:11;4.18;;;2.20;;
3767;SDS011;1899;49.966;7.106;2022-09-21T11:16:50;4.70;;;2.30;;
3767;SDS011;1899;49.966;7.106;2022-09-21T11:22:13;3.57;;;2.10;;
3767;SDS011;1899;49.966;7.106;2022-09-21T11:24:45;4.10;;;2.20;;
3767;SDS011;1899;49.966;7.106;2022-09-21T11:27:14;3.10;;;2.03;;
3767;SDS011;1899;49.966;7.106;2022-09-21T11:29:54;3.70;;;1.90;;
3767;SDS011;1899;49.966;7.106;2022-09-21T11:35:15;3.80;;;2.00;;
3767;SDS011;1899;49.966;7.106;2022-09-21T11:38:00;4.18;;;2.00;;
3767;SDS011;1899;49.966;7.106;2022-09-21T11:40:28;2.45;;;1.67;;
3767;SDS011;1899;49.966;7.106;2022-09-21T11:48:22;5.28;;;2.05;;
3767;SDS011;1899;49.966;7.106;2022-09-21T12:03:51;2.28;;;1.50;;
3767;SDS011;1899;49.966;7.106;2022-09-21T12:14:29;3.05;;;1.50;;
3767;SDS011;1899;49.966;7.106;2022-09-21T12:24:32;2.85;;;1.23;;
3767;SDS011;1899;49.966;7.106;2022-09-21T12:48:46;3.00;;;0.98;;
3767;SDS011;1899;49.966;7.106;2022-09-21T12:51:17;3.38;;;1.10;;
3767;SDS011;1899;49.966;7.106;2022-09-21T12:53:45;2.10;;;1.00;;
3767;SDS011;1899;49.966;7.106;2022-09-21T12:56:57;2.22;;;1.20;;
3767;SDS011;1899;49.966;7.106;2022-09-21T13:09:03;3.45;;;1.30;;
3767;SDS011;1899;49.966;7.106;2022-09-21T13:11:31;3.72;;;1.20;;
3767;SDS011;1899;49.966;7.106;2022-09-21T13:13:58;2.70;;;0.90;;
3767;SDS011;1899;49.966;7.106;2022-09-21T13:18:59;2.08;;;0.90;;
3767;SDS011;1899;49.966;7.106;2022-09-21T13:21:28;2.70;;;1.00;;
3767;SDS011;1899;49.966;7.106;2022-09-21T13:26:27;2.50;;;1.10;;
3767;SDS011;1899;49.966;7.106;2022-09-21T13:31:30;3.30;;;0.80;;
3767;SDS011;1899;49.966;7.106;2022-09-21T13:36:40;3.20;;;1.00;;
3767;SDS011;1899;49.966;7.106;2022-09-21T13:41:32;2.60;;;1.10;;
3767;SDS011;1899;49.966;7.106;2022-09-21T13:44:04;2.45;;;1.00;;
3767;SDS011;1899;49.966;7.106;2022-09-21T13:51:57;1.42;;;0.90;;
3767;SDS011;1899;49.966;7.106;2022-09-21T13:54:25;3.40;;;0.90;;
3767;SDS011;1899;49.966;7.106;2022-09-21T13:59:35;1.83;;;0.90;;
3767;SDS011;1899;49.966;7.106;2022-09-21T14:02:02;3.33;;;0.90;;
3767;SDS011;1899;49.966;7.106;2022-09-21T14:04:33;1.80;;;1.00;;
3767;SDS011;1899;49.966;7.106;2022-09-21T14:07:04;1.70;;;1.00;;
3767;SDS011;1899;49.966;7.106;2022-09-21T14:09:40;1.38;;;0.90;;
3767;SDS011;1899;49.966;7.106;2022-09-21T14:12:08;1.52;;;0.80;;
3767;SDS011;1899;49.966;7.106;2022-09-21T14:14:35;1.92;;;0.88;;
3767;SDS011;1899;49.966;7.106;2022-09-21T14:17:47;1.25;;;0.90;;
3767;SDS011;1899;49.966;7.106;2022-09-21T14:29:57;2.45;;;1.10;;
3767;SDS011;1899;49.966;7.106;2022-09-21T14:32:27;2.10;;;0.80;;
3767;SDS011;1899;49.966;7.106;2022-09-21T14:34:58;1.48;;;0.90;;
3767;SDS011;1899;49.966;7.106;2022-09-21T14:37:35;2.05;;;1.00;;
3767;SDS011;1899;49.966;7.106;2022-09-21T14:40:03;2.10;;;1.00;;
3767;SDS011;1899;49.966;7.106;2022-09-21T14:42:30;1.90;;;1.10;;
3767;SDS011;1899;49.966;7.106;2022-09-21T14:44:57;1.93;;;1.10;;
3767;SDS011;1899;49.966;7.106;2022-09-21T14:47:31;1.90;;;0.80;;
3767;SDS011;1899;49.966;7.106;2022-09-21T14:57:58;1.60;;;0.90;;
3767;SDS011;1899;49.966;7.106;2022-09-21T15:00:38;3.47;;;0.90;;
3767;SDS011;1899;49.966;7.106;2022-09-21T15:04:09;2.03;;;0.90;;
3767;SDS011;1899;49.966;7.106;2022-09-21T15:06:23;2.40;;;0.80;;
3767;SDS011;1899;49.966;7.106;2022-09-21T15:11:58;2.70;;;1.30;;
3767;SDS011;1899;49.966;7.106;2022-09-21T15:14:43;2.80;;;1.15;;
3767;SDS011;1899;49.966;7.106;2022-09-21T15:19:48;1.58;;;0.90;;
3767;SDS011;1899;49.966;7.106;2022-09-21T15:22:20;1.60;;;0.90;;
3767;SDS011;1899;49.966;7.106;2022-09-21T15:27:18;1.80;;;0.90;;
3767;SDS011;1899;49.966;7.106;2022-09-21T15:29:44;1.60;;;0.90;;
3767;SDS011;1899;49.966;7.106;2022-09-21T15:34:57;1.38;;;0.82;;
3767;SDS011;1899;49.966;7.106;2022-09-21T15:37:24;1.50;;;0.80;;
3767;SDS011;1899;49.966;7.106;2022-09-21T15:39:57;2.53;;;1.00;;
3767;SDS011;1899;49.966;7.106;2022-09-21T15:42:23;3.70;;;1.08;;
3767;SDS011;1899;49.966;7.106;2022-09-21T15:44:49;3.40;;;1.10;;
3767;SDS011;1899;49.966;7.106;2022-09-21T15:47:21;1.90;;;0.80;;
3767;SDS011;1899;49.966;7.106;2022-09-21T15:49:47;2.03;;;0.90;;
3767;SDS011;1899;49.966;7.106;2022-09-21T15:52:32;2.67;;;1.00;;
3767;SDS011;1899;49.966;7.106;2022-09-21T15:55:10;2.20;;;1.10;;
3767;SDS011;1899;49.966;7.106;2022-09-21T15:57:39;1.83;;;0.93;;
3767;SDS011;1899;49.966;7.106;2022-09-21T16:02:40;2.60;;;0.93;;
3767;SDS011;1899;49.966;7.106;2022-09-21T16:05:06;1.33;;;0.80;;
3767;SDS011;1899;49.966;7.106;2022-09-21T16:07:33;3.95;;;1.20;;
3767;SDS011;1899;49.966;7.106;2022-09-21T16:09:59;2.30;;;1.20;;
3767;SDS011;1899;49.966;7.106;2022-09-21T16:14:51;3.40;;;1.20;;
3767;SDS011;1899;49.966;7.106;2022-09-21T16:17:21;1.20;;;0.93;;
3767;SDS011;1899;49.966;7.106;2022-09-21T16:22:15;2.07;;;1.07;;
3767;SDS011;1899;49.966;7.106;2022-09-21T16:24:45;1.73;;;0.90;;
3767;SDS011;1899;49.966;7.106;2022-09-21T16:27:15;1.30;;;0.93;;
3767;SDS011;1899;49.966;7.106;2022-09-21T16:29:42;3.63;;;1.40;;
3767;SDS011;1899;49.966;7.106;2022-09-21T16:34:42;2.70;;;1.00;;
3767;SDS011;1899;49.966;7.106;2022-09-21T16:39:48;2.90;;;1.17;;
3767;SDS011;1899;49.966;7.106;2022-09-21T16:42:13;1.87;;;1.40;;
3767;SDS011;1899;49.966;7.106;2022-09-21T16:44:40;1.47;;;1.10;;
3767;SDS011;1899;49.966;7.106;2022-09-21T16:47:21;2.20;;;1.13;;
3767;SDS011;1899;49.966;7.106;2022-09-21T16:49:49;3.73;;;1.33;;
3767;SDS011;1899;49.966;7.106;2022-09-21T16:52:15;2.80;;;1.40;;
3767;SDS011;1899;49.966;7.106;2022-09-21T16:54:41;3.65;;;1.30;;
3767;SDS011;1899;49.966;7.106;2022-09-21T16:57:06;3.40;;;1.43;;
3767;SDS011;1899;49.966;7.106;2022-09-21T16:59:32;3.40;;;1.60;;
3767;SDS011;1899;49.966;7.106;2022-09-21T17:01:58;3.08;;;1.40;;
3767;SDS011;1899;49.966;7.106;2022-09-21T17:04:28;2.90;;;1.40;;
3767;SDS011;1899;49.966;7.106;2022-09-21T17:06:54;1.88;;;1.48;;
3767;SDS011;1899;49.966;7.106;2022-09-21T17:09:24;2.60;;;1.10;;
3767;SDS011;1899;49.966;7.106;2022-09-21T17:11:49;2.17;;;1.35;;
3767;SDS011;1899;49.966;7.106;2022-09-21T17:14:16;3.60;;;1.50;;
3767;SDS011;1899;49.966;7.106;2022-09-21T17:16:45;2.80;;;1.10;;
3767;SDS011;1899;49.966;7.106;2022-09-21T17:19:11;3.03;;;1.35;;
3767;SDS011;1899;49.966;7.106;2022-09-21T17:21:37;2.50;;;1.30;;
3767;SDS011;1899;49.966;7.106;2022-09-21T17:24:02;3.93;;;1.50;;
3767;SDS011;1899;49.966;7.106;2022-09-21T17:26:28;4.50;;;1.30;;
3767;SDS011;1899;49.966;7.106;2022-09-21T17:28:53;3.40;;;1.30;;
3767;SDS011;1899;49.966;7.106;2022-09-21T17:31:18;2.13;;;1.40;;
3767;SDS011;1899;49.966;7.106;2022-09-21T17:33:47;2.50;;;1.30;;
3767;SDS011;1899;49.966;7.106;2022-09-21T17:36:14;3.35;;;1.42;;
3767;SDS011;1899;49.966;7.106;2022-09-21T17:38:40;1.98;;;1.00;;
3767;SDS011;1899;49.966;7.106;2022-09-21T17:41:12;2.20;;;1.40;;
3767;SDS011;1899;49.966;7.106;2022-09-21T17:43:44;2.72;;;1.23;;
3767;SDS011;1899;49.966;7.106;2022-09-21T17:48:42;3.20;;;1.63;;
3767;SDS011;1899;49.966;7.106;2022-09-21T17:51:08;2.70;;;1.40;;
3767;SDS011;1899;49.966;7.106;2022-09-21T17:53:33;3.83;;;1.40;;
3767;SDS011;1899;49.966;7.106;2022-09-21T17:56:27;3.10;;;1.38;;
3767;SDS011;1899;49.966;7.106;2022-09-21T17:58:57;2.88;;;1.60;;
3767;SDS011;1899;49.966;7.106;2022-09-21T18:03:52;3.20;;;1.30;;
3767;SDS011;1899;49.966;7.106;2022-09-21T18:06:17;1.60;;;1.30;;
3767;SDS011;1899;49.966;7.106;2022-09-21T18:08:43;2.17;;;1.40;;
3767;SDS011;1899;49.966;7.106;2022-09-21T18:11:15;2.60;;;1.40;;
3767;SDS011;1899;49.966;7.106;2022-09-21T18:13:53;2.20;;;1.40;;
3767;SDS011;1899;49.966;7.106;2022-09-21T18:16:36;2.40;;;1.30;;
3767;SDS011;1899;49.966;7.106;2022-09-21T18:21:45;2.10;;;1.50;;
3767;SDS011;1899;49.966;7.106;2022-09-21T18:26:46;4.50;;;1.60;;
3767;SDS011;1899;49.966;7.106;2022-09-21T18:29:34;2.83;;;1.25;;
3767;SDS011;1899;49.966;7.106;2022-09-21T18:45:02;3.80;;;1.52;;
3767;SDS011;1899;49.966;7.106;2022-09-21T18:50:18;3.35;;;2.20;;
3767;SDS011;1899;49.966;7.106;2022-09-21T18:52:48;3.22;;;1.90;;
3767;SDS011;1899;49.966;7.106;2022-09-21T18:55:17;2.78;;;1.90;;
3767;SDS011;1899;49.966;7.106;2022-09-21T18:57:45;2.30;;;1.98;;
3767;SDS011;1899;49.966;7.106;2022-09-21T19:00:11;3.47;;;1.60;;
3767;SDS011;1899;49.966;7.106;2022-09-21T19:02:37;3.85;;;1.60;;
3767;SDS011;1899;49.966;7.106;2022-09-21T19:05:02;3.20;;;2.10;;
3767;SDS011;1899;49.966;7.106;2022-09-21T19:07:49;2.10;;;1.60;;
3767;SDS011;1899;49.966;7.106;2022-09-21T19:10:18;4.00;;;1.70;;
3767;SDS011;1899;49.966;7.106;2022-09-21T19:18:36;4.70;;;2.00;;
3767;SDS011;1899;49.966;7.106;2022-09-21T19:21:19;3.70;;;1.60;;
3767;SDS011;1899;49.966;7.106;2022-09-21T19:29:55;2.97;;;1.77;;
3767;SDS011;1899;49.966;7.106;2022-09-21T19:32:13;4.93;;;2.00;;
3767;SDS011;1899;49.966;7.106;2022-09-21T19:34:38;3.15;;;1.60;;
3767;SDS011;1899;49.966;7.106;2022-09-21T19:37:04;2.57;;;1.83;;
3767;SDS011;1899;49.966;7.106;2022-09-21T19:39:29;3.80;;;2.00;;
3767;SDS011;1899;49.966;7.106;2022-09-21T19:42:05;2.50;;;1.97;;
3767;SDS011;1899;49.966;7.106;2022-09-21T19:49:47;2.05;;;1.90;;
3767;SDS011;1899;49.966;7.106;2022-09-21T19:52:15;3.38;;;1.83;;
3767;SDS011;1899;49.966;7.106;2022-09-21T19:54:40;3.83;;;2.20;;
3767;SDS011;1899;49.966;7.106;2022-09-21T19:57:24;4.75;;;2.30;;
